Aeroporto :
LOGIN :

Iscrizione | Disclaimer

   EN    FR    IT 

 










Sommario :    VFR   VFR Marginale   IFR   IFR Intensivo   IFR Molto Intensivo
Visibilità : 
Base nubi : 
>= 8 km
>= 3000ft
5 / 8 km
1000 / 3000 ft
1500m / 5 km
500 / 1000 ft
800 / 1500m
200 / 500 ft
< 800m
< 200 ft
Simboli :   Temporali  Nebbia  Neve Forte  Precipitazioni Forti  Vento > 20 kt
SIGMETs :   Varie  Temporali  Ghiacco  Turbolenza  Onda orograficha  Ceneri Vulcaniche







- Altitudine del aeroporto : 39 ft
- Codice IATA : SUF


LICA - Lamezia Terme

ULTIMO METAR :
  • 191050Z 26010KT 210V290 9999 FEW030 27/21 Q1016

METARs OBSOLETI :
  • 190950Z 25008KT 210V300 9999 FEW030 27/20 Q1016
  • 190850Z 24007KT 190V280 9999 FEW030 27/20 Q1016

TAF TAF LICA
Valido dal 19 a 12 ore il 20 a 12 ore UTC


191100Z 1912/2012 27012KT 9999 FEW030
BECMG 1917/1919 VRB04KT
BECMG 2008/2010 27012KT
Nessun NOTAM noto per questo aeroporto.
5 SIGMETs conosciuti per la FIR Roma (LIRR) :
 
Cancellazione del SIGMET 4 
LIRR SIGMET 7 VALID 191049/191500 LIIB
LIRR ROMA FIR CNL SIGMET 4 191007/191500 NC=
Ceneri vulcaniche
LIRR SIGMET 6 VALID 191046/191600 LIIB
LIRR ROMA FIR VA ERUPTION MT ETNA PSN N3744 E01500 VA CLD OBS AT 1000Z WI N3730 E01449 - N3804 E01445 - N3804 E01525 - N3730 E01525 - N3730 E01449 MOV SE 15KT SFC/FL120 NC=
Cancellazione del SIGMET 2 
LIRR SIGMET 5 VALID 191006/191500 LIIB
LIRR ROMA FIR CNL SIGMET 2 190955/191500 NC=
Ceneri vulcaniche
LIRR SIGMET 4 VALID 191007/191500 LIIB
LIRR ROMA FIR VA ERUPTION MT ETNA PSN N3744 E01500 VA CLD OBS AT 0900Z WI N3700 E01525 - N3730 E01434 - N3815 E01449 - N3749 E01555 - N3700 E01525 MOV SE 20KT SFC/FL120 NC=
SIGMET 2  ANNULATO :
Ceneri vulcaniche
LIRR SIGMET 2 VALID 190955/191500 LIIB
LIRR ROMA FIR VA ERUPTION MT ETNA PSN N3744 E01500 SFC/FL120=



MetMap, La meteo Aeronautica in un colpo d'occhio ! - Copyright ORBIFLY Dicembre 2007 - Disclaimer

ORBIFLY MET'MAP TEAM :

Programmazione e sviluppo : Alexandra Zaïnal
Concezione e sviluppo : Baudouin d'Aumeries
Co-Programmazione e sviluppo : Marc-Olivier Méhu
Supporto tecnico e logistico : Manuel Goepfert
Aiuto per la traduzione : Arnaldo La Scala

Contatto : metmap@orbifly.com




FONTI E CREDITI :

   NOAA